地図

経路データ

SID SEASON NUMBER BASIN SUBBASIN NAME ISO_TIME NATURE LAT LON WMO_WIND WMO_PRES WMO_AGENCY TRACK_TYPE DIST2LAND LANDFALL IFLAG USA_AGENCY USA_ATCF_ID USA_LAT USA_LON USA_RECORD USA_STATUS USA_WIND USA_PRES USA_SSHS USA_R34_NE USA_R34_SE USA_R34_SW USA_R34_NW USA_R50_NE USA_R50_SE USA_R50_SW USA_R50_NW USA_R64_NE USA_R64_SE USA_R64_SW USA_R64_NW USA_POCI USA_ROCI USA_RMW USA_EYE TOKYO_LAT TOKYO_LON TOKYO_GRADE TOKYO_WIND TOKYO_PRES TOKYO_R50_DIR TOKYO_R50_LONG TOKYO_R50_SHORT TOKYO_R30_DIR TOKYO_R30_LONG TOKYO_R30_SHORT TOKYO_LAND CMA_LAT CMA_LON CMA_CAT CMA_WIND CMA_PRES HKO_LAT HKO_LON HKO_CAT HKO_WIND HKO_PRES NEWDELHI_LAT NEWDELHI_LON NEWDELHI_GRADE NEWDELHI_WIND NEWDELHI_PRES NEWDELHI_CI NEWDELHI_DP NEWDELHI_POCI REUNION_LAT REUNION_LON REUNION_TYPE REUNION_WIND REUNION_PRES REUNION_TNUM REUNION_CI REUNION_RMW REUNION_R34_NE REUNION_R34_SE REUNION_R34_SW REUNION_R34_NW REUNION_R50_NE REUNION_R50_SE REUNION_R50_SW REUNION_R50_NW REUNION_R64_NE REUNION_R64_SE REUNION_R64_SW REUNION_R64_NW BOM_LAT BOM_LON BOM_TYPE BOM_WIND BOM_PRES BOM_TNUM BOM_CI BOM_RMW BOM_R34_NE BOM_R34_SE BOM_R34_SW BOM_R34_NW BOM_R50_NE BOM_R50_SE BOM_R50_SW BOM_R50_NW BOM_R64_NE BOM_R64_SE BOM_R64_SW BOM_R64_NW BOM_ROCI BOM_POCI BOM_EYE BOM_POS_METHOD BOM_PRES_METHOD NADI_LAT NADI_LON NADI_CAT NADI_WIND NADI_PRES WELLINGTON_LAT WELLINGTON_LON WELLINGTON_WIND WELLINGTON_PRES DS824_LAT DS824_LON DS824_STAGE DS824_WIND DS824_PRES TD9636_LAT TD9636_LON TD9636_STAGE TD9636_WIND TD9636_PRES TD9635_LAT TD9635_LON TD9635_WIND TD9635_PRES TD9635_ROCI NEUMANN_LAT NEUMANN_LON NEUMANN_CLASS NEUMANN_WIND NEUMANN_PRES MLC_LAT MLC_LON MLC_CLASS MLC_WIND MLC_PRES USA_GUST BOM_GUST BOM_GUST_PER REUNION_GUST REUNION_GUST_PER USA_SEAHGT USA_SEARAD_NE USA_SEARAD_SE USA_SEARAD_SW USA_SEARAD_NW STORM_SPEED STORM_DIR
1967363S10078 1968 146 SI MM AMY:ELSPETH 1967-12-29 06:00:00 TS -10.0000 78.0000 main 1804 1803 O________OO___ jtwc_sh SH071968 -10.0000 78.0000 -1 -10.0000 78.0000 TC 25 -10.0000 78.0000 7 10 114
1967363S10078 1968 146 SI MM AMY:ELSPETH 1967-12-29 09:00:00 TS -10.1964 78.4522 main 1818 1817 P________PP___ SH071968 -10.1827 78.4674 -1 -10.1827 78.4674 TC 25 -10.2239 78.4217 7 10 116
1967363S10078 1968 146 SI MM AMY:ELSPETH 1967-12-29 12:00:00 TS -10.4193 78.8783 main 1836 1836 O________OP___ jtwc_sh SH071968 -10.4000 78.9000 -1 -10.4000 78.9000 TC 25 -10.4580 78.8349 7 9 122
1967363S10078 1968 146 SI MM AMY:ELSPETH 1967-12-29 15:00:00 TS -10.6893 79.2586 main 1865 1865 P________PP___ SH071968 -10.6774 79.2726 -1 -10.6774 79.2726 TC 25 -10.7131 79.2307 7 9 129
1967363S10078 1968 146 SI MM AMY:ELSPETH 1967-12-29 18:00:00 TS -11.0000 79.6000 main 1896 1896 O________OO___ jtwc_sh SH071968 -11.0000 79.6000 -1 -11.0000 79.6000 TC 25 -11.0000 79.6000 7 9 134
1967363S10078 1968 146 SI MM AMY:ELSPETH 1967-12-29 21:00:00 TS -11.3367 79.9306 main 1928 1928 P________PP___ SH071968 -11.3425 79.9300 -1 -11.3425 79.9300 TC 25 -11.3252 79.9319 7 10 138
1967363S10078 1968 146 SI MM AMY:ELSPETH 1967-12-30 00:00:00 TS -11.7161 80.2637 main 1972 1972 O________OP_O_ jtwc_sh SH071968 -11.7000 80.2000 -1 -11.7000 80.2000 TC 25 -11.6773 80.2070 7 -12.0000 81.0000 TC 25 1003 11 138
1967363S10078 1968 146 SI MM AMY:ELSPETH 1967-12-30 01:00:00 TS -11.8595 80.4196 main 1994 1994 P________PP_P_ SH071968 -11.8166 80.2776 -1 -11.8166 80.2776 TC 25 -11.7980 80.2823 7 -12.0833 80.9721 TC 25 1003 10 143
1967363S10078 1968 146 SI MM AMY:ELSPETH 1967-12-30 03:00:00 TS -12.0969 80.5551 main 2016 2016 P________PP_P_ SH071968 -12.0500 80.4025 -1 -12.0500 80.4025 TC 25 -12.0408 80.4036 7 -12.2500 80.9125 TC 25 1003 7 159
1967363S10078 1968 146 SI MM AMY:ELSPETH 1967-12-30 06:00:00 TS -12.4214 80.6426 main 2050 2050 O________OO_O_ jtwc_sh SH071968 -12.4000 80.5000 -1 -12.4000 80.5000 TC 25 -12.4000 80.5000 7 -12.5000 80.8000 TC 25 1003 6 176
1967363S10078 1968 146 SI MM AMY:ELSPETH 1967-12-30 09:00:00 TS -12.7196 80.6022 main 2083 2083 P________PP_P_ SH071968 -12.7575 80.5025 -1 -12.7575 80.5025 TC 25 -12.7360 80.5043 7 -12.7500 80.6500 TC 25 1003 6 194
1967363S10078 1968 146 SI MM AMY:ELSPETH 1967-12-30 12:00:00 TS -13.0048 80.4985 main 2117 2117 O________OP_O_ jtwc_sh SH071968 -13.1000 80.4000 -1 -13.1000 80.4000 TC 25 -13.0647 80.4077 7 -13.0000 80.5000 TC 25 1003 6 200
1967363S10078 1968 146 SI MM AMY:ELSPETH 1967-12-30 13:00:00 TS -13.0906 80.4702 main 2128 2128 P________PP_P_ SH071968 -13.2057 80.3557 -1 -13.2057 80.3557 TC 25 -13.1726 80.3569 7 -13.0833 80.4635 TC 25 1003 6 201
1967363S10078 1968 146 SI MM AMY:ELSPETH 1967-12-30 15:00:00 TS -13.2739 80.3938 main 2151 2151 P________PP_P_ SH071968 -13.4075 80.2375 -1 -13.4075 80.2375 TC 25 -13.3861 80.2323 7 -13.2500 80.3999 TC 25 1003 6 205
1967363S10078 1968 146 SI MM AMY:ELSPETH 1967-12-30 18:00:00 TS -13.5452 80.2464 main 2173 2173 O________OO_O_ jtwc_sh SH071968 -13.7000 80.0000 -1 -13.7000 80.0000 TC 25 -13.7000 80.0000 7 -13.5000 80.3000 TC 25 1003 6 211
1967363S10078 1968 146 SI MM AMY:ELSPETH 1967-12-30 21:00:00 TS -13.8211 80.0502 main 2207 2207 P________PP_P_ SH071968 -14.0000 79.7150 -1 -14.0000 79.7150 TC 25 -14.0316 79.7627 7 -13.7499 80.1874 TC 25 1003 7 219
1967363S10078 1968 146 SI MM AMY:ELSPETH 1967-12-31 00:00:00 TS -14.0956 79.7940 main 2242 2242 O________OP_O_ jtwc_sh SH071968 -14.3000 79.4000 -1 -14.3000 79.4000 TC 25 -14.3525 79.4753 7 -14.0000 80.0000 TC 25 1003 8 223
1967363S10078 1968 146 SI MM AMY:ELSPETH 1967-12-31 01:00:00 TS -14.1886 79.6987 main 2254 2254 P________PP_P_ SH071968 -14.4078 79.3026 -1 -14.4078 79.3026 TC 25 -14.4544 79.3705 7 -14.0833 79.9088 TC 25 1002 8 227
1967363S10078 1968 146 SI MM AMY:ELSPETH 1967-12-31 03:00:00 TS -14.3727 79.4877 main 2277 2277 P________PP_P_ SH071968 -14.6224 79.1075 -1 -14.6224 79.1075 TC 25 -14.6471 79.1502 7 -14.2500 79.6875 TC 25 1002 9 230
1967363S10078 1968 146 SI MM AMY:ELSPETH 1967-12-31 06:00:00 TS -14.6782 79.1030 reunion main 2313 2294 O____O___OO_O_ jtwc_sh SH071968 -14.9000 78.8000 -1 -16.0000 78.2000 2 9.90000 -14.9000 78.8000 TC 25 -14.9000 78.8000 7 -14.5000 79.3000 TC 25 1001 9 233
1967363S10078 1968 146 SI MM AMY:ELSPETH 1967-12-31 09:00:00 TS -14.9292 78.7157 main 2294 2243 P____P___PP_P_ SH071968 -15.0724 78.4649 -1 -16.0500 78.0725 2 -15.0724 78.4649 TC 25 -15.0972 78.4382 7 -14.7500 78.9000 TC 27 1000 9 237
1967363S10078 1968 146 SI MM AMY:ELSPETH 1967-12-31 12:00:00 TS -15.1837 78.3116 reunion main 2243 2229 O____O___OP_O_ jtwc_sh SH071968 -15.2000 78.1000 -1 -16.1000 77.9000 99 9.90000 -15.2000 78.1000 TC 25 -15.2526 78.0571 7 -15.0000 78.5000 TC 30 999 10 235
1967363S10078 1968 146 SI MM AMY:ELSPETH 1967-12-31 13:00:00 TS -15.3007 78.1657 main 2229 2195 P____P___PP_P_ SH071968 -15.2500 77.9697 -1 -16.1167 77.8255 99 -15.2500 77.9697 TC 25 -15.2977 77.9286 7 -15.0833 78.3802 TC 30 998 9 235
1967363S10078 1968 146 SI MM AMY:ELSPETH 1967-12-31 15:00:00 TS -15.4513 77.9101 main 2192 2158 P____P___PP_P_ SH071968 -15.3500 77.7000 -1 -16.1500 77.6575 99 -15.3500 77.7000 TC 25 -15.3816 77.6726 7 -15.2499 78.1499 TC 32 998 8 240
1967363S10078 1968 146 SI MM AMY:ELSPETH 1967-12-31 18:00:00 TS -15.6566 77.5360 reunion main 2144 2110 O____O___OO_O_ jtwc_sh SH071968 -15.5000 77.3000 -1 -16.2000 77.4000 99 9.90000 -15.5000 77.3000 TC 25 -15.5000 77.3000 7 -15.5000 77.8000 TC 35 997 8 242
1967363S10078 1968 146 SI MM AMY:ELSPETH 1967-12-31 21:00:00 TS -15.8242 77.1889 main 2110 2073 P____P___PP_P_ SH071968 -15.6574 76.9350 -1 -16.2425 77.1850 99 -15.6574 76.9350 TC 25 -15.6403 76.9362 7 -15.7502 77.4127 TC 37 7 244
1967363S10078 1968 146 SI MM AMY:ELSPETH 1968-01-01 00:00:00 TS -15.9656 76.8875 reunion main 2073 2063 O____O___OP_O_ jtwc_sh SH071968 -15.8000 76.6000 -1 -16.3000 77.0000 99 9.90000 -15.8000 76.6000 TC 25 -15.7725 76.5900 7 -16.0000 77.0000 TC 40 6 244
1967363S10078 1968 146 SI MM AMY:ELSPETH 1968-01-01 01:00:00 TS -16.0053 76.7962 main 2063 2049 P____P___PP___ SH071968 -15.8390 76.4890 -1 -16.3276 76.9364 99 -15.8390 76.4890 TC 26 -15.8142 76.4807 7 TC 5 245
1967363S10078 1968 146 SI MM AMY:ELSPETH 1968-01-01 03:00:00 TS -16.0771 76.6444 main 2039 2026 P____P___PP___ SH071968 -15.9075 76.2775 -1 -16.3925 76.8200 99 -15.9075 76.2775 TC 30 -15.8935 76.2738 7 TC 4 242
1967363S10078 1968 146 SI MM AMY:ELSPETH 1968-01-01 06:00:00 TS -16.1683 76.4766 reunion main 2026 2015 O____O___OO___ jtwc_sh SH071968 -16.0000 76.0000 -1 -16.5000 76.7000 3 9.90000 -16.0000 76.0000 TC 35 -16.0000 76.0000 2 3 234
1967363S10078 1968 146 SI MM AMY:ELSPETH 1968-01-01 09:00:00 TS -16.2499 76.3966 main 2015 2002 P____P___PP___ SH071968 -16.1075 75.7775 -1 -16.5999 76.7374 3 -16.1075 75.7775 TC 35 -16.0932 75.7776 2 2 224
1967363S10078 1968 146 SI MM AMY:ELSPETH 1968-01-01 12:00:00 TS -16.3207 76.3247 reunion main 2002 2002 O____O___OP___ jtwc_sh SH071968 -16.2000 75.6000 -1 -16.7000 76.7000 99 9.90000 -16.2000 75.6000 TC 35 -16.1722 75.5973 2 2 231
1967363S10078 1968 146 SI MM AMY:ELSPETH 1968-01-01 13:00:00 TS -16.3433 76.2781 main 2002 1989 P____P___PP___ SH071968 -16.2224 75.5443 -1 -16.7361 76.6072 99 -16.2224 75.5443 TC 35 -16.1959 75.5438 2 3 247
1967363S10078 1968 146 SI MM AMY:ELSPETH 1968-01-01 15:00:00 TS -16.3883 76.1622 main 1989 1968 P____P___PP___ SH071968 -16.2575 75.4425 -1 -16.8077 76.3451 99 -16.2575 75.4425 TC 35 -16.2401 75.4433 2 4 250
1967363S10078 1968 146 SI MM AMY:ELSPETH 1968-01-01 18:00:00 TS -16.4487 75.9763 reunion main 1968 1945 O____O___OO___ jtwc_sh SH071968 -16.3000 75.3000 -1 -16.9000 75.9000 99 9.90000 -16.3000 75.3000 TC 35 -16.3000 75.3000 2 4 251
1967363S10078 1968 146 SI MM AMY:ELSPETH 1968-01-01 21:00:00 TS -16.5041 75.8105 main 1945 1934 P____P___PP___ SH071968 -16.3500 75.1500 -1 -16.9575 75.5550 99 -16.3500 75.1500 TC 35 -16.3612 75.1306 2 3 251
1967363S10078 1968 146 SI MM AMY:ELSPETH 1968-01-02 00:00:00 TS -16.5502 75.6729 reunion main 1931 1921 O____O___OP___ jtwc_sh SH071968 -16.4000 75.0000 -1 -17.0000 75.3000 99 9.90000 -16.4000 75.0000 TC 35 -16.4150 74.9700 2 3 250
1967363S10078 1968 146 SI MM AMY:ELSPETH 1968-01-02 01:00:00 TS -16.5643 75.6363 main 1921 1921 P____P___PP___ SH071968 -16.4193 74.9474 -1 -17.0192 75.2412 99 -16.4193 74.9474 TC 35 -16.4313 74.9195 2 2 246
1967363S10078 1968 146 SI MM AMY:ELSPETH 1968-01-02 03:00:00 TS -16.5889 75.5765 main 1921 1911 P____P___PP___ SH071968 -16.4575 74.8425 -1 -17.0574 75.1625 99 -16.4575 74.8425 TC 35 -16.4613 74.8244 2 2 247
1967363S10078 1968 146 SI MM AMY:ELSPETH 1968-01-02 06:00:00 TS -16.6179 75.5063 reunion main 1911 1901 O____O___OO___ jtwc_sh SH071968 -16.5000 74.7000 -1 -17.1000 75.1000 4 9.90000 -16.5000 74.7000 TC 35 -16.5000 74.7000 2 1 251
1967363S10078 1968 146 SI MM AMY:ELSPETH 1968-01-02 09:00:00 TS -16.6333 75.4381 main 1901 1898 P____P___PP___ SH071968 -16.5000 74.5850 -1 -17.0925 75.0500 4 -16.5000 74.5850 TC 35 -16.5321 74.6075 2 1 252
1967363S10078 1968 146 SI MM AMY:ELSPETH 1968-01-02 12:00:00 TS -16.6559 75.3803 reunion main 1898 1898 O____O___OP___ jtwc_sh SH071968 -16.5000 74.5000 -1 -17.1000 75.0000 99 9.90000 -16.5000 74.5000 TC 35 -16.5574 74.5349 2 1 242
1967363S10078 1968 146 SI MM AMY:ELSPETH 1968-01-02 13:00:00 TS -16.6705 75.3660 main 1898 1887 P____P___PP___ SH071968 -16.5136 74.4802 -1 -17.1193 74.9802 99 -16.5136 74.4802 TC 35 -16.5649 74.5131 2 1 221
1967363S10078 1968 146 SI MM AMY:ELSPETH 1968-01-02 15:00:00 TS -16.7077 75.3395 main 1887 1884 P____P___PP___ SH071968 -16.5500 74.4500 -1 -17.1775 74.9300 99 -16.5500 74.4500 TC 35 -16.5790 74.4700 2 2 219
1967363S10078 1968 146 SI MM AMY:ELSPETH 1968-01-02 18:00:00 TS -16.7719 75.2831 reunion main 1884 1874 O____O___OO___ jtwc_sh SH071968 -16.6000 74.4000 -1 -17.3000 74.8000 99 9.90000 -16.6000 74.4000 TC 35 -16.6000 74.4000 2 2 231
1967363S10078 1968 146 SI MM AMY:ELSPETH 1968-01-02 21:00:00 TS -16.8340 75.1728 main 1874 1861 P____P___PP___ SH071968 -16.6000 74.3075 -1 -17.4576 74.5501 99 -16.6000 74.3075 TC 35 -16.6290 74.3113 2 3 241
1967363S10078 1968 146 SI MM AMY:ELSPETH 1968-01-03 00:00:00 TS -16.8924 75.0533 reunion main 1861 1851 O____O___OP___ jtwc_sh SH071968 -16.6000 74.2000 -1 -17.6000 74.3000 99 9.90000 -16.6000 74.2000 TC 35 -16.6575 74.2150 2 2 242
1967363S10078 1968 146 SI MM AMY:ELSPETH 1968-01-03 01:00:00 TS -16.9104 75.0232 main 1851 1851 P____P___PP___ SH071968 -16.6136 74.1693 -1 -17.6281 74.2495 99 -16.6136 74.1693 TC 35 -16.6663 74.1813 2 2 238
1967363S10078 1968 146 SI MM AMY:ELSPETH 1968-01-03 03:00:00 TS -16.9435 74.9692 main 1851 1838 P____P___PP___ SH071968 -16.6500 74.1075 -1 -17.6649 74.1774 99 -16.6500 74.1075 TC 35 -16.6822 74.1113 2 2 239
1967363S10078 1968 146 SI MM AMY:ELSPETH 1968-01-03 06:00:00 TS -16.9862 74.8906 reunion main 1838 1827 O____O___OO___ jtwc_sh SH071968 -16.7000 74.0000 -1 -17.7000 74.1000 4 9.90000 -16.7000 74.0000 TC 35 -16.7000 74.0000 2 2 245
1967363S10078 1968 146 SI MM AMY:ELSPETH 1968-01-03 09:00:00 TS -17.0213 74.7914 main 1827 1817 P____P___PP___ SH071968 -16.7075 73.8500 -1 -17.7575 74.0000 4 -16.7075 73.8500 TC 35 -16.6991 73.8740 2 2 252
1967363S10078 1968 146 SI MM AMY:ELSPETH 1968-01-03 12:00:00 TS -17.0474 74.6950 reunion main 1817 1814 O____O___OP___ jtwc_sh SH071968 -16.7000 73.7000 -1 -17.8000 73.9000 99 9.90000 -16.7000 73.7000 TC 35 -16.6925 73.7424 2 2 255
1967363S10078 1968 146 SI MM AMY:ELSPETH 1968-01-03 13:00:00 TS -17.0538 74.6678 main 1814 1804 P____P___PP___ SH071968 -16.6974 73.6609 -1 -17.8031 73.8640 99 -16.6974 73.6609 TC 35 -16.6907 73.6990 2 1 257
1967363S10078 1968 146 SI MM AMY:ELSPETH 1968-01-03 15:00:00 TS -17.0627 74.6248 main 1804 1804 P____P___PP___ SH071968 -16.6925 73.5925 -1 -17.8000 73.7925 99 -16.6925 73.5925 TC 35 -16.6897 73.6146 2 1 256
1967363S10078 1968 146 SI MM AMY:ELSPETH 1968-01-03 18:00:00 TS -17.0778 74.5669 reunion main 1804 1794 O____O___OO___ jtwc_sh SH071968 -16.7000 73.5000 -1 -17.8000 73.7000 99 9.90000 -16.7000 73.5000 TC 35 -16.7000 73.5000 2 1 247
1967363S10078 1968 146 SI MM AMY:ELSPETH 1968-01-03 21:00:00 TS -17.1056 74.5160 main 1794 1783 P____P___PP___ SH071968 -16.7425 73.3925 -1 -17.8500 73.6500 99 -16.7425 73.3925 TC 35 -16.7356 73.4147 2 1 243
1967363S10078 1968 146 SI MM AMY:ELSPETH 1968-01-04 00:00:00 TS -17.1455 74.4274 reunion main 1783 1781 O____O___OP___ jtwc_sh SH071968 -16.8000 73.3000 -1 -17.9000 73.6000 99 9.90000 -16.8000 73.3000 TC 35 -16.7849 73.3425 2 2 248
1967363S10078 1968 146 SI MM AMY:ELSPETH 1968-01-04 01:00:00 TS -17.1602 74.3804 main 1781 1770 P____P___PP___ SH071968 -16.8167 73.2802 -1 -17.9031 73.5671 99 -16.8167 73.2802 TC 35 -16.8034 73.3197 2 3 252
1967363S10078 1968 146 SI MM AMY:ELSPETH 1968-01-04 03:00:00 TS -17.1980 74.2599 main 1770 1747 P____P___PP___ SH071968 -16.8500 73.2500 -1 -17.9000 73.4925 99 -16.8500 73.2500 TC 35 -16.8418 73.2741 2 4 252
1967363S10078 1968 146 SI MM AMY:ELSPETH 1968-01-04 06:00:00 TS -17.2679 74.0389 reunion main 1737 1713 O____O___OO___ jtwc_sh SH071968 -16.9000 73.2000 -1 -17.9000 73.4000 4 9.90000 -16.9000 73.2000 TC 35 -16.9000 73.2000 2 5 250
1967363S10078 1968 146 SI MM AMY:ELSPETH 1968-01-04 09:00:00 TS -17.3608 73.7999 main 1713 1693 P____P___PP___ SH071968 -16.9500 73.1075 -1 -17.9500 73.3925 4 -16.9500 73.1075 TC 35 -16.9500 73.1031 2 5 250
1967363S10078 1968 146 SI MM AMY:ELSPETH 1968-01-04 12:00:00 TS -17.4359 73.5487 reunion main 1683 1683 O____O___OP___ jtwc_sh SH071968 -17.0000 73.0000 -1 -18.0000 73.4000 99 9.90000 -17.0000 73.0000 TC 35 -17.0000 73.0000 2 5 255
1967363S10078 1968 146 SI MM AMY:ELSPETH 1968-01-04 13:00:00 TS -17.4480 73.4658 main 1683 1659 P____P___PP___ SH071968 -17.0167 72.9640 -1 -18.0057 73.3890 99 -17.0167 72.9640 TC 35 -17.0167 72.9653 2 5 265
1967363S10078 1968 146 SI MM AMY:ELSPETH 1968-01-04 15:00:00 TS -17.4557 73.3021 main 1659 1641 P____P___PP___ SH071968 -17.0500 72.8925 -1 -18.0075 73.3575 99 -17.0500 72.8925 TC 35 -17.0500 72.8969 2 5 271
1967363S10078 1968 146 SI MM AMY:ELSPETH 1968-01-04 18:00:00 TS -17.4406 73.0558 reunion main 1641 1621 O____O___OO___ jtwc_sh SH071968 -17.1000 72.8000 -1 -18.0000 73.3000 99 9.90000 -17.1000 72.8000 TC 35 -17.1000 72.8000 2 4 274
1967363S10078 1968 146 SI MM AMY:ELSPETH 1968-01-04 21:00:00 TS -17.4275 72.8751 main 1621 1610 P____P___PP___ SH071968 -17.1500 72.7500 -1 -17.9925 73.2575 99 -17.1500 72.7500 TC 35 -17.1500 72.7178 2 3 269
1967363S10078 1968 146 SI MM AMY:ELSPETH 1968-01-05 00:00:00 TS -17.4472 72.7701 reunion main 1610 1608 O____O___OP___ jtwc_sh SH071968 -17.2000 72.7000 -1 -18.0000 73.2000 99 9.90000 -17.2000 72.7000 TC 35 -17.2000 72.6425 2 1 217
1967363S10078 1968 146 SI MM AMY:ELSPETH 1968-01-05 01:00:00 TS -17.5049 72.8215 main 1608 1605 P____P___PP___ SH071968 -17.2167 72.6698 -1 -18.0005 73.1776 99 -17.2167 72.6698 TC 35 -17.2166 72.6184 2 2 164
1967363S10078 1968 146 SI MM AMY:ELSPETH 1968-01-05 03:00:00 TS -17.5550 72.8031 main 1605 1595 P____P___PP___ SH071968 -17.2500 72.6000 -1 -18.0125 73.1224 99 -17.2500 72.6000 TC 35 -17.2500 72.5709 2 2 225
1967363S10078 1968 146 SI MM AMY:ELSPETH 1968-01-05 06:00:00 TS -17.6200 72.7000 reunion main 1595 1582 O____O___OO___ jtwc_sh SH071968 -17.3000 72.5000 -1 -18.1000 73.0000 4 9.90000 -17.3000 72.5000 TC 35 -17.3000 72.5000 2 3 226
1967363S10078 1968 146 SI MM AMY:ELSPETH 1968-01-05 09:00:00 TS -17.7380 72.5992 main 1582 1567 P____P___PP___ SH071968 -17.3500 72.4500 -1 -18.3199 72.8375 4 -17.3500 72.4500 TC 35 -17.3500 72.4209 2 3 220
1967363S10078 1968 146 SI MM AMY:ELSPETH 1968-01-05 12:00:00 TS -17.8800 72.4685 reunion main 1567 1544 O____O___OP___ jtwc_sh SH071968 -17.4000 72.4000 -1 -18.6000 72.6000 99 9.90000 -17.4000 72.4000 TC 35 -17.4000 72.3425 2 4 228
1967363S10078 1968 146 SI MM AMY:ELSPETH 1968-01-05 15:00:00 TS -18.0130 72.2826 main 1544 1521 P____P___PP___ SH071968 -17.4500 72.3000 -1 -18.8575 72.2725 99 -17.4500 72.3000 TC 35 -17.4500 72.2678 2 5 235
1967363S10078 1968 146 SI MM AMY:ELSPETH 1968-01-05 18:00:00 TS -18.1400 72.0800 reunion main 1521 1498 O____O___OO___ jtwc_sh SH071968 -17.5000 72.2000 -1 -19.1000 71.9000 99 9.90000 -17.5000 72.2000 TC 35 -17.5000 72.2000 2 4 238
1967363S10078 1968 146 SI MM AMY:ELSPETH 1968-01-05 21:00:00 TS -18.2245 71.9348 main 1498 1485 P____P___PP___ SH071968 -17.5500 72.1425 -1 -19.2999 71.5498 99 -17.5500 72.1425 TC 35 -17.4225 72.2895 2 3 238
1967363S10078 1968 146 SI MM AMY:ELSPETH 1968-01-06 00:00:00 TS -18.3129 71.7926 reunion main 1485 1473 O____O___OP___ jtwc_sh SH071968 -17.6000 72.1000 -1 -19.5000 71.2000 99 9.90000 -17.6000 72.1000 TC 35 -17.3646 72.3632 2 3 235
1967363S10078 1968 146 SI MM AMY:ELSPETH 1968-01-06 03:00:00 TS -18.4026 71.6686 main 1473 1438 P____P___PP___ SH071968 -17.5670 72.1616 -1 -19.7274 70.8573 99 -17.5670 72.1616 TC 35 -17.4244 72.3055 2 5 231
1967363S10078 1968 146 SI MM AMY:ELSPETH 1968-01-06 06:00:00 TS -18.6200 71.4000 reunion main 1438 1379 O____O___OO___ jtwc_sh SH071968 -17.7000 72.0000 -1 -20.0000 70.5000 4 9.90000 -17.7000 72.0000 TC 35 -17.7000 72.0000 2 10 230
1967363S10078 1968 146 SI MM AMY:ELSPETH 1968-01-06 09:00:00 TS -19.0431 70.8517 main 1379 1287 P____P___PP___ SH071968 -18.1499 71.3638 -1 -20.3346 70.1447 4 -18.1499 71.3638 TC 35 -18.2462 71.2415 2 16 231
1967363S10078 1968 146 SI MM AMY:ELSPETH 1968-01-06 12:00:00 TS -19.6425 70.0869 reunion main 1287 1188 O____O___OP___ jtwc_sh SH071968 -18.9000 70.4000 -1 -20.7000 69.7000 99 9.90000 -18.9000 70.4000 TC 35 -19.0127 70.2346 2 21 231
1967363S10078 1968 146 SI MM AMY:ELSPETH 1968-01-06 15:00:00 TS -20.3480 69.1563 main 1188 1095 P____P___PP___ SH071968 -19.8537 69.2510 -1 -21.0428 69.0725 99 -19.8537 69.2510 TC 35 -19.9470 69.1347 2 23 229
1967363S10078 1968 146 SI MM AMY:ELSPETH 1968-01-06 18:00:00 TS -21.1600 68.2200 reunion main 1085 1021 O____O___OO___ jtwc_sh SH071968 -21.0000 68.1000 -1 -21.4000 68.4000 99 9.90000 -21.0000 68.1000 TC 35 -21.0000 68.1000 2 23 223
1967363S10078 1968 146 SI MM AMY:ELSPETH 1968-01-06 21:00:00 TS -22.0188 67.4632 main 1023 974 P____P___PP___ SH071968 -22.2343 67.2020 -1 -21.7246 67.8412 99 -22.2343 67.2020 TC 30 -22.1762 67.2294 2 22 216
1967363S10078 1968 146 SI MM AMY:ELSPETH 1968-01-07 00:00:00 TS -22.9688 66.8131 reunion main 977 953 O____O___OP___ jtwc_sh SH071968 -23.5000 66.5000 -1 -22.2000 67.3000 99 9.90000 -23.5000 66.5000 TC 25 -23.4440 66.4656 2 24 210
1967363S10078 1968 146 SI MM AMY:ELSPETH 1968-01-07 03:00:00 TS -24.0420 66.1735 main 957 952 P____P___PP___ SH071968 -24.7246 65.8728 -1 -23.0355 66.6271 99 -24.7246 65.8728 TC 25 -24.6896 65.8678 2 23 205
1967363S10078 1968 146 SI MM AMY:ELSPETH 1968-01-07 06:00:00 MX -25.0400 65.7400 reunion main 961 961 O____O___OO___ jtwc_sh SH071968 -25.8000 65.5000 -1 -23.9000 66.1000 5 9.90000 -25.8000 65.5000 TC 25 -25.8000 65.5000 1 18 196
1967363S10078 1968 146 SI MM AMY:ELSPETH 1968-01-07 09:00:00 MX -25.7451 65.6328 main 994 994 P____P___PP___ SH071968 -26.6320 65.4286 -1 -24.4071 65.9586 5 -26.6320 65.4286 TC 25 -26.6475 65.3896 1 13 0
1967363S10078 1968 146 SI MM AMY:ELSPETH 1968-01-07 12:00:00 MX -26.3498 65.7438 reunion main 1041 1041 O____O___OP___ jtwc_sh SH071968 -27.3000 65.6000 -1 -24.9000 66.0000 99 9.90000 -27.3000 65.6000 TC 25 -27.3493 65.5190 1 13 170
1967363S10078 1968 146 SI MM AMY:ELSPETH 1968-01-07 15:00:00 MX -27.0303 65.8782 main 1105 1105 P____P___PP___ SH071968 -27.9375 65.8474 -1 -25.6624 65.9410 99 -27.9375 65.8474 TC 25 -27.9515 65.8144 1 14 166
1967363S10078 1968 146 SI MM AMY:ELSPETH 1968-01-07 18:00:00 MX -27.7000 66.1200 reunion main 1171 1171 O____O___OO___ jtwc_sh SH071968 -28.5000 66.2000 -1 -26.5000 66.0000 99 9.90000 -28.5000 66.2000 TC 25 -28.5000 66.2000 1 14 158
1967363S10078 1968 146 SI MM AMY:ELSPETH 1968-01-07 21:00:00 MX -28.3075 66.4465 main 1238 1238 P____P___PP___ SH071968 -29.0074 66.5780 -1 -27.2275 66.2754 99 -29.0074 66.5780 TC 25 -29.0678 66.5257 1 14 152
1967363S10078 1968 146 SI MM AMY:ELSPETH 1968-01-08 00:00:00 MX -28.9189 66.8649 reunion main 1319 1319 O____O___OP___ jtwc_sh SH071968 -29.5000 67.0000 -1 -28.0000 66.7000 99 9.90000 -29.5000 67.0000 TC 25 -29.5944 66.9244 1 15 150
1967363S10078 1968 146 SI MM AMY:ELSPETH 1968-01-08 03:00:00 MX -29.6318 67.3307 main 1401 1401 P____P___PP___ SH071968 -30.0498 67.4279 -1 -28.9803 67.2060 99 -30.0498 67.4279 TC 25 -30.0987 67.3859 1 16 149
1967363S10078 1968 146 SI MM AMY:ELSPETH 1968-01-08 06:00:00 MX -30.3200 67.8200 reunion main 1490 1490 O____O___OO___ jtwc_sh SH071968 -30.6000 67.9000 -1 -29.9000 67.7000 5 9.90000 -30.6000 67.9000 TC 25 -30.6000 67.9000 1 15 147
1967363S10078 1968 146 SI MM AMY:ELSPETH 1968-01-08 09:00:00 MX -30.8579 68.2519 main 1571 1571 P____P___PP___ SH071968 -31.0997 68.4209 -1 -30.4868 67.9951 5 -31.0997 68.4209 TC 25 -31.1163 68.4275 1 13 144
1967363S10078 1968 146 SI MM AMY:ELSPETH 1968-01-08 12:00:00 MX -31.3668 68.7212 reunion main 1638 1638 O____O___OP___ jtwc_sh SH071968 -31.6000 69.0000 -1 -31.0000 68.3000 99 9.90000 -31.6000 69.0000 TC 25 -31.6339 69.0060 1 14 141
1967363S10078 1968 146 SI MM AMY:ELSPETH 1968-01-08 15:00:00 MX -31.9537 69.2879 main 1725 1725 P____P___PP___ SH071968 -32.1423 69.6280 -1 -31.6621 68.7760 99 -32.1423 69.6280 TC 25 -32.1596 69.6315 1 16 140
1967363S10078 1968 146 SI MM AMY:ELSPETH 1968-01-08 18:00:00 MX -32.5800 69.9400 reunion main 1804 1740 O____O___OO___ jtwc_sh SH071968 -32.7000 70.3000 -1 -32.4000 69.4000 99 9.90000 -32.7000 70.3000 TC 25 -32.7000 70.3000 1 17 138
1967363S10078 1968 146 SI MM AMY:ELSPETH 1968-01-08 21:00:00 MX -33.2346 70.6489 main 1740 1669 P____P___PP___ SH071968 -33.2420 70.9788 -1 -33.2147 70.1399 99 -33.2420 70.9788 TC 25 -33.2596 71.0074 1 18 136
1967363S10078 1968 146 SI MM AMY:ELSPETH 1968-01-09 00:00:00 MX -33.8868 71.4296 reunion main 1669 1612 O____O___OP___ jtwc_sh SH071968 -33.8000 71.7000 -1 -34.0000 71.0000 99 9.90000 -33.8000 71.7000 TC 25 -33.8340 71.7479 1 18 133
1967363S10078 1968 146 SI MM AMY:ELSPETH 1968-01-09 03:00:00 MX -34.4984 72.2672 main 1613 1567 P____P___PP___ SH071968 -34.3912 72.4798 -1 -34.6465 71.9308 99 -34.3912 72.4798 TC 30 -34.4164 72.5146 1 18 130
1967363S10078 1968 146 SI MM AMY:ELSPETH 1968-01-09 06:00:00 MX -35.0800 73.1400 reunion main 1560 O____O___OO___ jtwc_sh SH071968 -35.0000 73.3000 -1 -35.2000 72.9000 6 9.90000 -35.0000 73.3000 TC 35 -35.0000 73.3000 2 18 129

IBTrACS Databaseについて

本データベースは、米国NOAAが公開する1842年以降の世界の熱帯低気圧のベストトラックデータアーカイブInternational Best Track Archive for Climate Stewardship (IBTrACS)を、ウェブで閲覧しやすい形式に変換したものです。

最終更新日:2021-12-03